Time;durP1;ratioP1;P1;durP2;ratioP2;P2;SDS_P1;SDS_P2;PMS_P1;PMS_P2;Temp;Humidity;BMP_temperature;BMP_pressure;BME280_temperature;BME280_humidity;BME280_pressure;Samples;Min_cycle;Max_cycle;Signal;HPM_P1;HPM_P2
2022/03/04 00:04:49;;;;;;;13.43;10.30;;;3.60;23.80;;;;;;10372128;28;20226;-73
2022/03/04 00:09:53;;;;;;;12.27;10.93;;;3.50;23.80;;;;;;10375971;28;20808;-74
2022/03/04 00:14:57;;;;;;;12.77;10.80;;;3.50;23.90;;;;;;10379516;28;20221;-73
2022/03/04 00:20:00;;;;;;;13.93;11.03;;;3.50;24.10;;;;;;10375898;28;20308;-74
2022/03/04 00:25:05;;;;;;;13.87;11.27;;;3.40;23.90;;;;;;10373118;28;20218;-74
2022/03/04 00:30:11;;;;;;;12.23;10.60;;;3.40;24.00;;;;;;10376097;28;20245;-74
2022/03/04 00:35:14;;;;;;;12.00;9.93;;;3.40;24.20;;;;;;10373163;28;20237;-74
2022/03/04 00:40:17;;;;;;;11.50;9.93;;;3.40;24.10;;;;;;10372997;28;20218;-74
2022/03/04 00:45:22;;;;;;;12.53;10.47;;;3.40;24.10;;;;;;10374924;28;20602;-74
2022/03/04 00:50:25;;;;;;;11.93;10.33;;;3.40;24.20;;;;;;10376728;28;20236;-73
2022/03/04 00:55:28;;;;;;;12.20;10.03;;;3.30;24.00;;;;;;10375161;28;20225;-74
2022/03/04 01:00:33;;;;;;;13.20;11.80;;;3.30;23.90;;;;;;10376217;28;20236;-73
2022/03/04 01:05:38;;;;;;;13.70;11.03;;;3.20;24.00;;;;;;10374485;28;20220;-73
2022/03/04 01:10:41;;;;;;;12.87;10.50;;;3.20;24.10;;;;;;10378757;28;20237;-74
2022/03/04 01:15:45;;;;;;;11.30;9.77;;;3.10;24.10;;;;;;10375841;28;20233;-74
2022/03/04 01:20:49;;;;;;;11.47;9.33;;;3.10;24.10;;;;;;10378554;28;20226;-74
2022/03/04 01:25:53;;;;;;;10.13;8.70;;;3.10;24.00;;;;;;10373678;28;20782;-74
2022/03/04 01:30:57;;;;;;;11.73;9.43;;;3.20;24.10;;;;;;10374264;28;20225;-74
2022/03/04 01:36:01;;;;;;;10.27;9.13;;;3.10;24.30;;;;;;10377817;28;20233;-74
2022/03/04 01:41:06;;;;;;;12.87;9.97;;;3.00;24.10;;;;;;10380787;28;20221;-74
2022/03/04 01:46:14;;;;;;;11.57;9.27;;;2.90;24.10;;;;;;10379927;28;20234;-73
2022/03/04 01:51:17;;;;;;;10.87;9.77;;;2.80;24.50;;;;;;10378057;28;20226;-73
2022/03/04 01:56:21;;;;;;;10.70;8.30;;;2.90;24.60;;;;;;10380578;28;20225;-74
2022/03/04 02:01:26;;;;;;;11.27;9.13;;;2.70;24.40;;;;;;10378453;28;20609;-74
2022/03/04 02:06:30;;;;;;;12.20;10.07;;;2.70;24.40;;;;;;10377678;28;20221;-73
2022/03/04 02:11:33;;;;;;;11.80;9.27;;;2.60;24.40;;;;;;10376813;28;20244;-73
2022/03/04 02:16:42;;;;;;;12.57;10.07;;;2.60;24.40;;;;;;10377776;28;20236;-73
2022/03/04 02:21:52;;;;;;;11.40;8.90;;;2.60;24.40;;;;;;10376429;28;20600;-73
2022/03/04 02:26:58;;;;;;;11.40;8.97;;;2.60;24.60;;;;;;10379530;28;20224;-73
2022/03/04 02:32:02;;;;;;;11.73;9.73;;;2.40;24.30;;;;;;10379525;28;20230;-73
2022/03/04 02:37:07;;;;;;;11.70;10.10;;;2.50;24.40;;;;;;10372096;28;20216;-73
2022/03/04 02:42:11;;;;;;;10.87;9.57;;;2.40;24.30;;;;;;10378088;28;20233;-73
2022/03/04 02:47:14;;;;;;;9.67;8.30;;;2.30;24.30;;;;;;10373100;28;20229;-73
2022/03/04 02:52:18;;;;;;;10.70;8.33;;;2.30;24.20;;;;;;10377567;28;20233;-73
2022/03/04 02:57:22;;;;;;;10.47;9.37;;;2.20;24.40;;;;;;10377640;28;20230;-73
2022/03/04 03:02:25;;;;;;;10.70;8.70;;;2.20;24.40;;;;;;10377910;28;20230;-73
2022/03/04 03:07:30;;;;;;;8.10;6.40;;;2.10;24.50;;;;;;10375987;28;20938;-73
2022/03/04 03:12:33;;;;;;;11.13;9.07;;;2.00;24.50;;;;;;10380110;28;20233;-73
2022/03/04 03:17:37;;;;;;;9.70;8.40;;;2.00;24.50;;;;;;10375082;28;20230;-73
2022/03/04 03:22:41;;;;;;;11.07;9.10;;;2.00;24.60;;;;;;10372733;28;20786;-73
2022/03/04 03:27:44;;;;;;;10.30;9.13;;;2.00;24.70;;;;;;10373541;28;20695;-73
2022/03/04 03:32:48;;;;;;;9.90;8.37;;;1.90;24.50;;;;;;10374489;28;20233;-73
2022/03/04 03:37:52;;;;;;;8.90;7.73;;;1.90;24.50;;;;;;10378989;28;20222;-73
2022/03/04 03:42:55;;;;;;;10.43;7.73;;;1.80;24.60;;;;;;10372246;28;20236;-73
2022/03/04 03:47:59;;;;;;;11.50;9.67;;;1.80;24.50;;;;;;10373033;28;20241;-73
2022/03/04 03:53:03;;;;;;;11.57;8.77;;;1.70;24.60;;;;;;10369954;28;20228;-73
2022/03/04 03:58:06;;;;;;;9.70;8.57;;;1.70;24.70;;;;;;10371902;28;20225;-73
2022/03/04 04:03:10;;;;;;;10.37;8.27;;;1.70;24.60;;;;;;10370360;28;20909;-73
2022/03/04 04:08:14;;;;;;;10.43;8.77;;;1.60;24.60;;;;;;10370067;28;20222;-73
2022/03/04 04:13:17;;;;;;;9.63;8.00;;;1.60;24.70;;;;;;10369591;28;20230;-73
2022/03/04 04:18:20;;;;;;;10.37;9.13;;;1.50;24.50;;;;;;10370217;28;20709;-73
2022/03/04 04:23:25;;;;;;;11.13;8.53;;;1.50;24.60;;;;;;10370121;28;20225;-73
2022/03/04 04:28:28;;;;;;;10.90;9.30;;;1.40;24.70;;;;;;10372459;28;20237;-72
2022/03/04 04:33:32;;;;;;;10.03;8.07;;;1.40;24.60;;;;;;10370977;28;20240;-73
2022/03/04 04:38:37;;;;;;;9.20;8.00;;;1.30;24.50;;;;;;10372366;28;20234;-72
2022/03/04 04:43:40;;;;;;;9.70;8.17;;;1.30;24.70;;;;;;10371013;28;20233;-73
2022/03/04 04:48:43;;;;;;;11.37;8.27;;;1.20;24.60;;;;;;10369580;28;20237;-72
2022/03/04 04:53:47;;;;;;;11.33;8.83;;;1.10;24.70;;;;;;10370434;28;20233;-72
2022/03/04 04:58:51;;;;;;;12.07;8.40;;;1.00;24.90;;;;;;10370403;28;20245;-72
2022/03/04 05:03:54;;;;;;;12.87;8.77;;;1.00;24.90;;;;;;10373726;28;20218;-72
2022/03/04 05:08:58;;;;;;;10.17;8.60;;;1.00;24.90;;;;;;10373786;28;20230;-72
2022/03/04 05:14:02;;;;;;;11.53;9.27;;;1.00;25.00;;;;;;10381296;28;20225;-72
2022/03/04 05:19:05;;;;;;;11.33;8.83;;;0.90;25.00;;;;;;10378240;28;20313;-72
2022/03/04 05:24:11;;;;;;;9.93;8.47;;;0.90;25.10;;;;;;10384025;28;20238;-72
2022/03/04 05:29:15;;;;;;;11.67;8.93;;;0.80;25.10;;;;;;10381193;28;20618;-72
2022/03/04 05:34:18;;;;;;;11.43;8.73;;;0.80;25.10;;;;;;10376430;28;20714;-72
2022/03/04 05:39:22;;;;;;;11.20;9.07;;;0.70;25.10;;;;;;10379372;28;20237;-72
2022/03/04 05:44:26;;;;;;;13.50;9.87;;;0.70;25.30;;;;;;10375694;28;20241;-72
2022/03/04 05:49:29;;;;;;;14.20;10.87;;;0.70;25.30;;;;;;10375259;28;20226;-72
2022/03/04 05:54:34;;;;;;;14.87;11.10;;;0.70;25.40;;;;;;10376652;28;20225;-72
2022/03/04 05:59:37;;;;;;;11.13;9.47;;;0.70;25.50;;;;;;10374325;28;20233;-72
2022/03/04 06:04:40;;;;;;;11.53;9.53;;;0.70;25.40;;;;;;10375397;28;20228;-73
2022/03/04 06:09:44;;;;;;;11.40;9.67;;;0.60;25.30;;;;;;10375001;28;20238;-73
2022/03/04 06:14:48;;;;;;;11.00;8.77;;;0.60;25.60;;;;;;10373688;28;20221;-72
2022/03/04 06:19:51;;;;;;;11.97;9.40;;;0.60;25.60;;;;;;10378920;28;20229;-73
2022/03/04 06:24:55;;;;;;;14.50;9.97;;;0.60;25.50;;;;;;10380745;28;20222;-72
2022/03/04 06:29:59;;;;;;;11.00;8.23;;;0.60;25.60;;;;;;10378113;28;20324;-73
2022/03/04 06:35:02;;;;;;;13.97;10.03;;;0.60;25.60;;;;;;10380277;28;20745;-73
2022/03/04 06:40:08;;;;;;;16.63;11.93;;;0.60;25.60;;;;;;10376502;28;20241;-72
2022/03/04 06:45:11;;;;;;;14.00;10.93;;;0.60;25.90;;;;;;10376339;28;20336;-73
2022/03/04 06:50:16;;;;;;;14.60;10.70;;;0.70;25.80;;;;;;10370223;28;20229;-73
2022/03/04 06:55:24;;;;;;;12.90;9.33;;;0.60;25.80;;;;;;10374017;28;20264;-72
2022/03/04 07:00:28;;;;;;;14.77;9.20;;;0.70;26.00;;;;;;10375725;28;20233;-72
2022/03/04 07:05:31;;;;;;;14.47;11.37;;;0.70;26.80;;;;;;10371557;28;20222;-73
2022/03/04 07:10:36;;;;;;;26.93;18.03;;;0.80;27.30;;;;;;10366557;28;20227;-73
2022/03/04 07:15:41;;;;;;;22.60;17.03;;;0.90;27.20;;;;;;10373466;28;20237;-73
2022/03/04 07:20:44;;;;;;;20.10;14.27;;;1.00;26.90;;;;;;10374988;28;20236;-73
2022/03/04 07:25:49;;;;;;;18.67;13.43;;;1.00;26.80;;;;;;10378713;28;20229;-73
2022/03/04 07:30:52;;;;;;;18.10;13.67;;;1.10;26.90;;;;;;10374391;28;20605;-72
2022/03/04 07:35:55;;;;;;;16.83;11.73;;;1.20;26.90;;;;;;10373156;28;20348;-72
2022/03/04 07:41:00;;;;;;;15.47;11.77;;;1.30;26.90;;;;;;10365785;28;20633;-72
2022/03/04 07:46:04;;;;;;;18.03;12.63;;;1.40;27.40;;;;;;10368102;28;20232;-72
2022/03/04 07:51:07;;;;;;;16.67;12.77;;;1.40;27.40;;;;;;10372208;28;20230;-72
2022/03/04 07:56:12;;;;;;;17.33;13.20;;;1.60;27.50;;;;;;10377655;28;20227;-73
2022/03/04 08:01:15;;;;;;;16.37;12.17;;;1.70;27.90;;;;;;10374337;28;20231;-73
2022/03/04 08:06:23;;;;;;;16.70;13.07;;;1.90;27.80;;;;;;10372797;28;20237;-73
2022/03/04 08:11:28;;;;;;;17.67;14.07;;;2.10;27.90;;;;;;10374196;28;20233;-72
2022/03/04 08:16:33;;;;;;;18.53;14.53;;;2.30;28.30;;;;;;10380607;28;20230;-72
2022/03/04 08:21:36;;;;;;;22.07;14.77;;;2.60;28.20;;;;;;10373182;28;20222;-72
2022/03/04 08:26:41;;;;;;;16.57;14.33;;;2.90;28.20;;;;;;10367217;28;20227;-72
2022/03/04 08:31:45;;;;;;;19.70;15.80;;;3.10;28.50;;;;;;10372301;28;20221;-72
2022/03/04 08:36:49;;;;;;;21.30;15.77;;;3.40;28.30;;;;;;10372522;28;20222;-71
2022/03/04 08:41:54;;;;;;;20.33;15.93;;;3.70;28.30;;;;;;10380856;28;20305;-71
2022/03/04 08:46:57;;;;;;;20.03;16.00;;;4.00;28.50;;;;;;10385471;28;20225;-71
2022/03/04 08:52:01;;;;;;;20.13;17.33;;;4.30;28.80;;;;;;10388563;28;20229;-72
2022/03/04 08:57:06;;;;;;;19.67;16.77;;;4.50;28.30;;;;;;10385027;28;20234;-71
2022/03/04 09:02:09;;;;;;;20.20;17.43;;;4.80;28.40;;;;;;10391304;28;20228;-72
2022/03/04 09:07:13;;;;;;;22.77;17.10;;;5.10;28.30;;;;;;10391193;28;20222;-71
2022/03/04 09:12:18;;;;;;;23.00;18.63;;;5.30;28.20;;;;;;10376402;28;20232;-71
2022/03/04 09:17:22;;;;;;;23.03;18.10;;;5.60;28.20;;;;;;10380473;28;20643;-72
2022/03/04 09:22:25;;;;;;;21.53;18.20;;;5.90;28.00;;;;;;10371337;28;20230;-70
2022/03/04 09:27:30;;;;;;;21.10;18.23;;;6.10;27.90;;;;;;10382518;28;20225;-72
2022/03/04 09:32:33;;;;;;;21.60;18.03;;;6.40;27.80;;;;;;10397109;28;20225;-71
2022/03/04 09:37:36;;;;;;;23.33;18.97;;;6.70;27.60;;;;;;10392138;28;20233;-71
2022/03/04 09:42:41;;;;;;;24.50;20.07;;;7.00;27.50;;;;;;10395228;28;20234;-70
2022/03/04 09:47:47;;;;;;;24.97;19.67;;;7.20;27.30;;;;;;10390338;28;20633;-71
2022/03/04 09:52:50;;;;;;;23.63;19.33;;;7.50;27.50;;;;;;10392109;28;20230;-71
2022/03/04 09:57:59;;;;;;;22.73;18.60;;;7.60;27.50;;;;;;10397737;28;20248;-71
2022/03/04 10:03:03;;;;;;;22.90;20.30;;;7.80;27.30;;;;;;10395006;28;20870;-71
2022/03/04 10:08:19;;;;;;;24.37;18.67;;;8.00;27.10;;;;;;10388115;28;20240;-72
2022/03/04 10:24:19;;;;;;;19.77;17.63;;;8.20;26.90;;;;;;10478003;27;20596;-71
2022/03/04 10:29:24;;;;;;;22.03;17.50;;;8.70;26.20;;;;;;10423367;28;20237;-69
2022/03/04 10:34:27;;;;;;;19.50;17.23;;;8.90;25.70;;;;;;10426451;28;20263;-71
2022/03/04 10:39:34;;;;;;;19.90;17.13;;;9.10;25.80;;;;;;10430346;28;20268;-71
2022/03/04 10:44:37;;;;;;;20.07;17.97;;;9.20;26.00;;;;;;10436773;28;21767;-70
2022/03/04 10:49:41;;;;;;;18.30;16.30;;;9.30;25.30;;;;;;10422641;28;20220;-70
2022/03/04 10:54:51;;;;;;;20.70;18.17;;;9.40;25.00;;;;;;10420538;28;20240;-71
2022/03/04 10:59:57;;;;;;;20.60;18.20;;;9.40;24.10;;;;;;10446493;28;20303;-70
2022/03/04 11:05:01;;;;;;;20.37;16.60;;;9.40;24.00;;;;;;10420156;28;20225;-70
2022/03/04 11:10:06;;;;;;;21.10;17.20;;;9.50;24.70;;;;;;10432402;28;20231;-69
2022/03/04 11:15:11;;;;;;;19.27;17.17;;;9.50;24.20;;;;;;10433594;28;20231;-74
2022/03/04 11:20:15;;;;;;;23.57;19.90;;;9.50;24.50;;;;;;10424323;28;20224;-71
2022/03/04 11:25:22;;;;;;;20.80;18.13;;;9.70;24.50;;;;;;10428851;28;20229;-71
2022/03/04 11:30:38;;;;;;;21.13;18.37;;;9.80;24.40;;;;;;10411638;28;20235;-71
2022/03/04 11:36:08;;;;;;;19.10;17.07;;;9.90;23.70;;;;;;10398959;28;20296;-72
2022/03/04 11:41:18;;;;;;;19.50;17.40;;;10.00;22.80;;;;;;10399537;28;20222;-72
2022/03/04 11:46:42;;;;;;;18.80;16.73;;;10.10;22.80;;;;;;10408762;28;20233;-71
2022/03/04 11:52:19;;;;;;;20.27;16.40;;;10.20;23.10;;;;;;10395167;28;21353;-71
2022/03/04 11:57:27;;;;;;;18.30;15.20;;;10.20;21.90;;;;;;10387429;28;20245;-72
2022/03/04 12:02:38;;;;;;;15.63;13.33;;;10.20;22.50;;;;;;10383204;28;20233;-72
2022/03/04 12:07:42;;;;;;;12.87;11.47;;;10.30;22.50;;;;;;10401255;28;20304;-73
2022/03/04 12:13:01;;;;;;;15.20;13.13;;;10.40;23.90;;;;;;10399014;28;20225;-72
2022/03/04 12:18:08;;;;;;;15.53;13.93;;;10.50;22.40;;;;;;10396735;28;20329;-72
2022/03/04 12:23:14;;;;;;;16.30;13.43;;;10.60;22.50;;;;;;10401902;28;20233;-72
2022/03/04 12:28:20;;;;;;;14.50;12.93;;;10.70;22.30;;;;;;10400606;28;20230;-72
2022/03/04 12:33:24;;;;;;;12.33;11.03;;;10.80;21.80;;;;;;10399966;28;20251;-72
2022/03/04 12:38:28;;;;;;;12.37;10.60;;;10.90;22.00;;;;;;10399708;28;20232;-73
2022/03/04 12:43:39;;;;;;;10.57;8.67;;;10.90;21.60;;;;;;10400137;28;20280;-72
2022/03/04 12:48:43;;;;;;;12.10;10.37;;;10.80;20.80;;;;;;10399268;28;20233;-72
2022/03/04 12:53:47;;;;;;;11.50;10.13;;;10.80;21.80;;;;;;10397945;28;20220;-72
2022/03/04 12:58:53;;;;;;;8.60;7.70;;;10.90;22.00;;;;;;10395223;28;20313;-72
2022/03/04 13:03:58;;;;;;;9.90;7.37;;;10.90;21.50;;;;;;10396593;28;20221;-72
2022/03/04 13:09:03;;;;;;;8.00;7.20;;;10.90;21.50;;;;;;10394057;28;20264;-72
2022/03/04 13:14:10;;;;;;;8.00;7.13;;;11.00;21.40;;;;;;10403199;28;20238;-73
2022/03/04 13:19:16;;;;;;;8.83;7.93;;;11.00;21.30;;;;;;10409981;28;20239;-73
2022/03/04 13:24:25;;;;;;;9.23;7.00;;;11.10;21.30;;;;;;10400749;28;20539;-73
2022/03/04 13:29:34;;;;;;;7.33;6.47;;;11.10;21.10;;;;;;10377955;28;20232;-73
2022/03/04 13:34:39;;;;;;;6.57;5.97;;;11.10;20.60;;;;;;10397054;28;20233;-73
2022/03/04 13:39:45;;;;;;;7.60;5.83;;;11.20;21.20;;;;;;10374022;28;20601;-72
2022/03/04 13:44:58;;;;;;;6.30;5.70;;;11.20;21.10;;;;;;10354666;28;20237;-72
2022/03/04 13:50:04;;;;;;;5.73;5.00;;;11.20;20.30;;;;;;10370047;28;20277;-72
2022/03/04 13:55:09;;;;;;;5.27;4.77;;;11.10;20.80;;;;;;10399125;28;20709;-73
2022/03/04 14:00:16;;;;;;;5.83;4.60;;;11.10;20.80;;;;;;10384930;28;20236;-72
2022/03/04 14:05:30;;;;;;;4.80;4.40;;;11.00;20.30;;;;;;10382156;28;20222;-72
2022/03/04 14:10:34;;;;;;;4.90;4.40;;;11.00;19.90;;;;;;10377959;28;20313;-72
2022/03/04 14:15:41;;;;;;;5.20;4.43;;;10.90;20.50;;;;;;10392606;28;20222;-72
2022/03/04 14:20:45;;;;;;;4.10;3.70;;;10.90;20.00;;;;;;10388597;28;20233;-72
2022/03/04 14:25:49;;;;;;;3.90;3.50;;;10.80;20.30;;;;;;10389720;28;20226;-72
2022/03/04 14:30:59;;;;;;;4.03;3.73;;;10.80;20.40;;;;;;10381955;28;20230;-72
2022/03/04 14:36:03;;;;;;;4.30;3.50;;;10.70;19.80;;;;;;10387564;28;20221;-72
2022/03/04 14:41:06;;;;;;;3.70;3.27;;;10.70;20.20;;;;;;10392373;28;20217;-71
2022/03/04 14:46:10;;;;;;;3.50;3.13;;;10.60;20.20;;;;;;10386339;28;20237;-71
2022/03/04 14:51:14;;;;;;;4.03;3.37;;;10.60;20.00;;;;;;10385837;28;20218;-71
2022/03/04 14:56:18;;;;;;;3.47;3.13;;;10.60;20.20;;;;;;10396983;28;20759;-71
2022/03/04 15:01:22;;;;;;;4.30;3.90;;;10.60;20.20;;;;;;10394579;28;20226;-71
2022/03/04 15:06:26;;;;;;;4.33;3.80;;;10.60;19.80;;;;;;10389511;28;20689;-71
2022/03/04 15:11:29;;;;;;;8.40;4.10;;;10.60;20.30;;;;;;10400642;28;20230;-72
2022/03/04 15:16:34;;;;;;;3.87;3.50;;;10.50;20.90;;;;;;10383624;28;20229;-71
2022/03/04 15:21:38;;;;;;;4.90;3.97;;;10.50;19.90;;;;;;10399711;28;20324;-71
2022/03/04 15:26:41;;;;;;;5.30;3.77;;;10.50;20.30;;;;;;10388557;28;20230;-72
2022/03/04 15:31:46;;;;;;;5.07;4.53;;;10.40;20.20;;;;;;10377338;28;20228;-72
2022/03/04 15:36:49;;;;;;;4.93;4.43;;;10.30;19.80;;;;;;10389978;28;20268;-72
2022/03/04 15:41:53;;;;;;;4.43;4.03;;;10.20;20.00;;;;;;10399822;28;20222;-73
2022/03/04 15:46:58;;;;;;;5.83;4.70;;;10.10;20.30;;;;;;10404119;28;20233;-74
2022/03/04 15:52:01;;;;;;;6.20;4.83;;;10.10;20.40;;;;;;10392618;28;20237;-73
2022/03/04 15:57:05;;;;;;;5.07;4.53;;;10.10;20.50;;;;;;10402908;28;20564;-73
2022/03/04 16:02:10;;;;;;;7.03;5.00;;;10.00;20.50;;;;;;10406110;28;20225;-73
2022/03/04 16:07:14;;;;;;;6.07;5.33;;;10.10;20.70;;;;;;10397621;28;20273;-71
2022/03/04 16:12:18;;;;;;;5.90;5.10;;;10.10;20.50;;;;;;10402680;28;20226;-70
2022/03/04 16:17:38;;;;;;;5.67;5.10;;;10.00;20.10;;;;;;10400640;28;20737;-72
2022/03/04 16:22:41;;;;;;;6.00;5.20;;;9.90;21.00;;;;;;10400052;28;20230;-71
2022/03/04 16:27:44;;;;;;;7.20;5.70;;;9.90;21.10;;;;;;10405108;28;20358;-71
2022/03/04 16:32:49;;;;;;;8.20;5.70;;;9.90;21.20;;;;;;10400442;28;20276;-71
2022/03/04 16:37:52;;;;;;;6.67;5.77;;;9.90;21.00;;;;;;10396743;28;20222;-71
2022/03/04 16:42:55;;;;;;;7.73;5.60;;;9.90;21.10;;;;;;10400828;28;20268;-71
2022/03/04 16:48:00;;;;;;;6.43;5.70;;;9.90;21.20;;;;;;10397066;28;20226;-71
2022/03/04 16:53:03;;;;;;;7.27;5.50;;;9.80;21.00;;;;;;10386179;28;20221;-71
2022/03/04 16:58:07;;;;;;;9.57;7.53;;;9.80;21.20;;;;;;10405426;28;20213;-72
2022/03/04 17:03:11;;;;;;;8.30;6.80;;;9.80;21.30;;;;;;10392373;28;20234;-72
2022/03/04 17:08:16;;;;;;;7.10;6.13;;;9.70;21.20;;;;;;10355605;28;20293;-72
2022/03/04 17:13:19;;;;;;;6.27;5.47;;;9.70;21.30;;;;;;10376493;28;20230;-72
2022/03/04 17:18:24;;;;;;;6.33;5.67;;;9.70;21.40;;;;;;10394784;28;20238;-72
2022/03/04 17:23:27;;;;;;;6.90;5.93;;;9.70;21.40;;;;;;10384894;28;20872;-72
2022/03/04 17:28:30;;;;;;;7.07;6.10;;;9.70;21.50;;;;;;10369682;28;20590;-72
2022/03/04 17:33:36;;;;;;;7.83;6.30;;;9.70;21.50;;;;;;10402318;28;20317;-71
2022/03/04 17:38:40;;;;;;;16.13;14.40;;;9.60;21.30;;;;;;10404080;28;20247;-72
2022/03/04 17:43:43;;;;;;;8.87;7.97;;;9.60;21.50;;;;;;10377823;28;20730;-72
2022/03/04 17:48:50;;;;;;;7.07;6.03;;;9.50;21.40;;;;;;10403289;28;20237;-71
2022/03/04 17:53:53;;;;;;;8.13;6.97;;;9.40;21.40;;;;;;10402810;28;20225;-72
2022/03/04 17:58:57;;;;;;;7.40;6.50;;;9.30;21.50;;;;;;10404991;28;20737;-72
2022/03/04 18:04:01;;;;;;;8.07;7.00;;;9.20;21.50;;;;;;10406309;28;20234;-71
2022/03/04 18:09:05;;;;;;;7.13;6.43;;;9.10;21.60;;;;;;10399598;28;20759;-72
2022/03/04 18:14:08;;;;;;;8.07;7.27;;;9.10;21.60;;;;;;10398278;28;21200;-71
2022/03/04 18:19:12;;;;;;;6.30;5.63;;;8.90;21.70;;;;;;10376331;22;20225;-69
2022/03/04 18:24:16;;;;;;;9.43;8.03;;;8.80;21.90;;;;;;10357865;28;20229;-69
2022/03/04 18:29:19;;;;;;;9.23;7.33;;;8.70;21.80;;;;;;10345749;28;20429;-70
2022/03/04 18:34:24;;;;;;;6.73;6.03;;;8.70;21.90;;;;;;10354982;28;20238;-69
2022/03/04 18:44:47;;;;;;;7.93;7.07;;;8.50;21.90;;;;;;10323747;28;20717;-71
2022/03/04 18:49:51;;;;;;;8.97;7.30;;;8.40;22.00;;;;;;10360679;28;20218;-71
2022/03/04 18:54:55;;;;;;;9.00;7.80;;;8.30;22.10;;;;;;10356645;28;20229;-71
2022/03/04 18:59:58;;;;;;;10.20;8.33;;;8.30;22.20;;;;;;10350750;28;20221;-71
2022/03/04 19:05:03;;;;;;;9.07;8.00;;;8.10;22.20;;;;;;10350009;28;20718;-71
2022/03/04 19:10:07;;;;;;;8.50;7.63;;;8.10;22.30;;;;;;10355085;28;20223;-71
2022/03/04 19:15:12;;;;;;;11.27;8.27;;;8.00;22.40;;;;;;10320498;28;20235;-71
2022/03/04 19:20:18;;;;;;;10.03;8.67;;;7.90;22.40;;;;;;10316813;28;20712;-71
2022/03/04 19:25:21;;;;;;;8.70;7.03;;;7.80;22.50;;;;;;10318965;28;20252;-71
2022/03/04 19:30:28;;;;;;;7.60;6.37;;;7.60;22.30;;;;;;10318710;28;20249;-71
2022/03/04 19:35:34;;;;;;;12.60;11.30;;;7.50;22.40;;;;;;10317846;28;20243;-72
2022/03/04 19:40:42;;;;;;;13.70;12.30;;;7.40;22.60;;;;;;10318553;28;20238;-74
2022/03/04 19:45:45;;;;;;;11.57;10.37;;;7.40;22.60;;;;;;10317265;28;20231;-74
2022/03/04 19:50:51;;;;;;;10.87;9.60;;;7.30;22.60;;;;;;10314927;28;20228;-74
2022/03/04 19:55:55;;;;;;;11.00;9.73;;;7.20;22.80;;;;;;10319557;28;20222;-74
2022/03/04 20:00:58;;;;;;;8.80;7.90;;;7.10;22.70;;;;;;10330442;28;20235;-74
2022/03/04 20:06:04;;;;;;;10.03;8.93;;;7.10;23.30;;;;;;10316515;28;20577;-74
2022/03/04 20:11:10;;;;;;;8.83;7.77;;;7.00;22.90;;;;;;10322270;28;20222;-74
2022/03/04 20:16:14;;;;;;;12.43;9.60;;;6.90;22.80;;;;;;10304313;28;20231;-74
2022/03/04 20:21:18;;;;;;;10.27;8.73;;;6.90;23.00;;;;;;10305855;28;20641;-74
2022/03/04 20:26:23;;;;;;;12.43;10.17;;;6.80;23.00;;;;;;10308370;28;20250;-73
2022/03/04 20:31:26;;;;;;;10.47;8.90;;;6.70;22.90;;;;;;10328509;28;20233;-73
2022/03/04 20:36:31;;;;;;;14.00;10.47;;;6.60;22.80;;;;;;10335446;28;20236;-73
2022/03/04 20:41:34;;;;;;;11.63;10.43;;;6.60;23.10;;;;;;10324237;28;20711;-73
2022/03/04 20:46:37;;;;;;;12.70;10.17;;;6.50;22.90;;;;;;10341654;28;20249;-73
2022/03/04 20:51:42;;;;;;;9.33;7.60;;;6.40;23.10;;;;;;10362480;28;20262;-73
2022/03/04 20:56:46;;;;;;;10.03;8.97;;;6.30;23.20;;;;;;10345803;28;20230;-73
2022/03/04 21:01:49;;;;;;;9.27;8.17;;;6.20;23.20;;;;;;10354168;28;20237;-73
2022/03/04 21:06:53;;;;;;;9.40;7.83;;;6.20;23.30;;;;;;10358215;28;20281;-72
2022/03/04 21:11:57;;;;;;;11.10;8.60;;;6.10;23.50;;;;;;10354364;28;20265;-73
2022/03/04 21:17:00;;;;;;;9.57;8.23;;;6.10;23.40;;;;;;10346116;28;20234;-73
2022/03/04 21:22:06;;;;;;;8.53;7.60;;;6.00;23.40;;;;;;10363617;28;20230;-73
2022/03/04 21:27:09;;;;;;;9.13;8.10;;;6.00;23.60;;;;;;10349369;28;20265;-73
2022/03/04 21:32:12;;;;;;;7.53;6.73;;;5.90;23.50;;;;;;10353707;28;20241;-73
2022/03/04 21:37:17;;;;;;;9.20;7.97;;;5.80;23.50;;;;;;10311519;28;20239;-73
2022/03/04 21:42:21;;;;;;;8.47;7.47;;;5.70;23.70;;;;;;10310123;28;20223;-73
2022/03/04 21:47:24;;;;;;;8.10;7.10;;;5.60;23.70;;;;;;10320216;28;20233;-73
2022/03/04 21:52:29;;;;;;;9.00;7.50;;;5.60;23.70;;;;;;10349715;28;20261;-72
2022/03/04 21:57:32;;;;;;;9.30;8.00;;;5.50;24.00;;;;;;10341798;28;20230;-73
2022/03/04 22:02:36;;;;;;;8.53;7.30;;;5.50;24.00;;;;;;10339582;28;20231;-73
2022/03/04 22:07:41;;;;;;;8.47;7.20;;;5.40;23.90;;;;;;10341186;28;20606;-73
2022/03/04 22:12:44;;;;;;;9.23;8.27;;;5.40;24.00;;;;;;10346920;28;20231;-73
2022/03/04 22:17:47;;;;;;;10.83;7.93;;;5.30;23.80;;;;;;10347198;28;20223;-73
2022/03/04 22:22:52;;;;;;;9.33;8.30;;;5.20;23.80;;;;;;10339267;28;20230;-73
2022/03/04 22:27:55;;;;;;;8.50;7.60;;;5.20;24.10;;;;;;10340316;28;20226;-73
2022/03/04 22:32:59;;;;;;;7.13;6.37;;;5.10;23.90;;;;;;10349304;28;20234;-72
2022/03/04 22:38:03;;;;;;;9.20;7.73;;;5.10;24.00;;;;;;10359623;28;20231;-73
2022/03/04 22:43:07;;;;;;;10.67;8.97;;;5.00;24.10;;;;;;10350915;28;20235;-72
2022/03/04 22:48:10;;;;;;;9.90;7.83;;;4.90;24.10;;;;;;10347167;28;20233;-72
2022/03/04 22:53:14;;;;;;;10.03;8.10;;;4.80;24.10;;;;;;10350619;28;20234;-73
2022/03/04 22:58:17;;;;;;;9.70;7.47;;;4.80;24.20;;;;;;10357149;28;20596;-73
2022/03/04 23:08:43;;;;;;;9.23;7.83;;;4.60;24.70;;;;;;10354761;28;20235;-73
2022/03/04 23:13:46;;;;;;;10.83;7.33;;;4.50;24.30;;;;;;10342892;28;20231;-73
2022/03/04 23:18:49;;;;;;;8.07;7.23;;;4.40;24.10;;;;;;10344368;28;20238;-73
2022/03/04 23:23:55;;;;;;;9.60;7.87;;;4.40;24.20;;;;;;10347383;28;20699;-73
2022/03/04 23:28:59;;;;;;;8.73;7.83;;;4.20;24.20;;;;;;10342998;28;20222;-73
2022/03/04 23:34:02;;;;;;;8.83;7.70;;;4.20;24.10;;;;;;10343246;28;20230;-73
2022/03/04 23:39:07;;;;;;;10.87;8.30;;;4.00;24.10;;;;;;10373257;28;20230;-73
2022/03/04 23:44:11;;;;;;;9.83;8.83;;;4.00;24.50;;;;;;10370077;28;20226;-73
2022/03/04 23:49:15;;;;;;;8.83;7.47;;;3.90;24.20;;;;;;10361043;28;20333;-73
2022/03/04 23:54:19;;;;;;;8.80;7.80;;;3.80;24.30;;;;;;10378889;28;20225;-73
2022/03/04 23:59:23;;;;;;;9.80;7.83;;;3.80;24.60;;;;;;10372508;28;20238;-73
